createdAt,value
2019-01-05T00:03:18.682Z,61.70
2019-01-05T00:12:14.306Z,61.70
2019-01-05T00:19:03.382Z,61.50
2019-01-05T00:27:53.698Z,61.50
2019-01-05T00:35:14.413Z,61.20
2019-01-05T00:42:20.748Z,60.90
2019-01-05T00:49:13.674Z,60.80
2019-01-05T00:58:07.921Z,61.00
2019-01-05T01:04:57.197Z,60.80
2019-01-05T01:11:46.473Z,60.80
2019-01-05T01:20:39.437Z,61.20
2019-01-05T01:29:29.729Z,61.20
2019-01-05T01:36:21.851Z,61.90
2019-01-05T01:43:10.017Z,62.40
2019-01-05T01:50:13.798Z,62.90
2019-01-05T01:57:02.937Z,63.00
2019-01-05T02:03:52.137Z,63.50
2019-01-05T02:12:49.316Z,63.60
2019-01-05T02:20:16.617Z,63.80
2019-01-05T02:29:30.262Z,64.00
2019-01-05T02:37:09.850Z,63.90
2019-01-05T02:44:19.641Z,63.80
2019-01-05T02:51:26.781Z,64.10
2019-01-05T02:58:39.173Z,64.30
2019-01-05T03:07:54.290Z,64.60
2019-01-05T03:17:07.002Z,64.90
2019-01-05T03:25:15.873Z,65.20
2019-01-05T03:34:45.746Z,66.20
2019-01-05T03:42:23.105Z,65.80
2019-01-05T03:51:31.787Z,65.10
2019-01-05T03:58:55.593Z,64.20
2019-01-05T04:06:37.005Z,63.70
2019-01-05T04:16:11.294Z,63.80
2019-01-05T04:23:43.193Z,64.40
2019-01-05T04:30:53.540Z,64.90
2019-01-05T04:38:23.746Z,66.20
2019-01-05T04:46:37.221Z,66.50
2019-01-05T04:54:34.405Z,66.90
2019-01-05T05:02:43.102Z,66.80
2019-01-05T05:09:53.902Z,67.00
2019-01-05T05:20:12.825Z,67.40
2019-01-05T05:28:40.522Z,68.00
2019-01-05T05:35:54.362Z,68.50
2019-01-05T05:45:30.871Z,69.20
2019-01-05T05:52:45.874Z,69.40
2019-01-05T05:59:56.697Z,69.50
2019-01-05T06:07:04.213Z,69.70
2019-01-05T06:16:49.037Z,69.60
2019-01-05T06:28:02.762Z,69.30
2019-01-05T06:35:10.622Z,70.00
2019-01-05T06:45:29.573Z,70.00
2019-01-05T06:53:08.802Z,69.70
2019-01-05T07:00:31.509Z,69.50
2019-01-05T07:07:39.549Z,69.80
2019-01-05T07:14:49.874Z,69.80
2019-01-05T07:22:59.234Z,70.00
2019-01-05T07:30:10.578Z,70.40
2019-01-05T07:37:17.454Z,70.40
2019-01-05T07:44:26.102Z,69.10
2019-01-05T07:51:33.338Z,69.00
2019-01-05T07:59:44.046Z,69.50
2019-01-05T08:07:30.585Z,69.80
2019-01-05T08:17:39.517Z,69.50
2019-01-05T08:25:17.961Z,69.20
2019-01-05T08:32:29.105Z,68.90
2019-01-05T08:39:49.393Z,69.40
2019-01-05T08:47:53.526Z,69.80
2019-01-05T08:55:04.231Z,70.00
2019-01-05T09:03:36.365Z,69.80
2019-01-05T09:11:42.661Z,70.20
2019-01-05T09:19:55.113Z,70.30
2019-01-05T09:27:10.841Z,71.20
2019-01-05T09:36:23.725Z,71.80
2019-01-05T09:44:31.929Z,71.50
2019-01-05T09:53:44.353Z,71.50
2019-01-05T10:01:58.336Z,71.90
2019-01-05T10:09:36.157Z,71.40
2019-01-05T10:18:06.042Z,71.60
2019-01-05T10:27:19.381Z,72.70
2019-01-05T10:37:04.530Z,71.80
2019-01-05T10:44:44.439Z,72.10
2019-01-05T10:51:47.838Z,72.00
2019-01-05T10:58:50.730Z,72.00
2019-01-05T11:06:01.225Z,71.60
2019-01-05T11:14:21.173Z,71.00
2019-01-05T11:21:51.216Z,71.60
2019-01-05T11:28:54.165Z,71.70
2019-01-05T11:35:52.325Z,71.10
2019-01-05T11:45:00.513Z,70.80
2019-01-05T11:52:37.210Z,70.50
2019-01-05T11:59:59.697Z,69.70
2019-01-05T12:07:17.642Z,68.00
2019-01-05T12:14:23.705Z,68.60
2019-01-05T12:21:33.938Z,68.80
2019-01-05T12:30:53.482Z,70.30
2019-01-05T12:38:07.757Z,70.10
2019-01-05T12:45:08.231Z,70.70
2019-01-05T12:54:12.586Z,71.40
2019-01-05T13:01:43.674Z,70.90
2019-01-05T13:09:23.326Z,70.20
2019-01-05T13:16:38.181Z,70.00
2019-01-05T13:23:45.426Z,68.80
2019-01-05T13:30:59.117Z,68.30
2019-01-05T13:39:57.785Z,67.90
2019-01-05T13:48:01.173Z,68.60
2019-01-05T13:55:19.369Z,68.40
2019-01-05T14:02:22.487Z,69.10
2019-01-05T14:09:12.994Z,69.50
2019-01-05T14:16:04.133Z,69.60
2019-01-05T14:22:54.286Z,69.20
2019-01-05T14:29:44.255Z,68.60
2019-01-05T14:36:39.442Z,68.50
2019-01-05T14:43:28.679Z,68.40
2019-01-05T14:50:34.929Z,68.60
2019-01-05T14:58:27.701Z,67.70
2019-01-05T15:05:18.876Z,67.90
2019-01-05T15:12:08.138Z,67.40
2019-01-05T15:18:57.312Z,67.60
2019-01-05T15:25:52.425Z,67.60
2019-01-05T15:32:41.721Z,67.70
2019-01-05T15:39:31.126Z,67.60
2019-01-05T15:46:26.406Z,67.70
2019-01-05T15:53:17.553Z,67.70
2019-01-05T16:00:06.650Z,67.80
2019-01-05T16:06:56.263Z,68.40
2019-01-05T16:15:48.933Z,69.00
2019-01-05T16:24:44.478Z,69.70
2019-01-05T16:33:39.830Z,70.10
2019-01-05T16:40:31.745Z,70.10
2019-01-05T16:47:20.945Z,69.90
2019-01-05T16:54:13.106Z,70.60
2019-01-05T17:01:37.835Z,71.20
2019-01-05T17:08:28.016Z,71.50
2019-01-05T17:15:19.200Z,72.00
2019-01-05T17:23:06.409Z,72.10
2019-01-05T17:29:56.574Z,72.00
2019-01-05T17:36:45.594Z,71.70
2019-01-05T17:43:48.932Z,71.50
2019-01-05T17:51:47.221Z,71.40
2019-01-05T17:59:39.841Z,70.90
2019-01-05T18:06:31.011Z,70.40
2019-01-05T18:13:23.169Z,70.80
2019-01-05T18:20:23.519Z,70.70
2019-01-05T18:28:12.719Z,70.60
2019-01-05T18:35:07.962Z,70.60
2019-01-05T18:41:56.996Z,71.90
2019-01-05T18:48:45.240Z,72.20
2019-01-05T18:55:34.606Z,72.50
2019-01-05T19:04:28.082Z,73.00
2019-01-05T19:11:16.215Z,72.70
2019-01-05T19:19:09.349Z,72.80
2019-01-05T19:26:00.584Z,72.30
2019-01-05T19:33:47.435Z,72.40
2019-01-05T19:40:35.608Z,72.10
2019-01-05T19:47:24.984Z,72.70
2019-01-05T19:55:13.392Z,72.30
2019-01-05T20:02:17.617Z,72.00
2019-01-05T20:09:20.646Z,72.00
2019-01-05T20:16:09.911Z,71.90
2019-01-05T20:23:05.114Z,71.40
2019-01-05T20:32:01.278Z,71.10
2019-01-05T20:40:54.848Z,71.60
2019-01-05T20:48:41.961Z,70.40
2019-01-05T20:56:29.345Z,70.50
2019-01-05T21:03:18.597Z,70.40
2019-01-05T21:10:11.893Z,70.10
2019-01-05T21:17:01.350Z,70.20
2019-01-05T21:23:50.610Z,69.60
2019-01-05T21:30:39.793Z,69.50
2019-01-05T21:39:31.221Z,69.00
2019-01-05T21:48:25.533Z,68.50
2019-01-05T21:56:18.967Z,68.70
2019-01-05T22:03:08.233Z,68.20
2019-01-05T22:10:13.159Z,68.10
2019-01-05T22:17:02.398Z,68.50
2019-01-05T22:23:54.433Z,68.90
2019-01-05T22:30:45.661Z,69.30
2019-01-05T22:37:33.973Z,69.90
2019-01-05T22:45:23.201Z,70.40
2019-01-05T22:52:12.384Z,70.30
2019-01-05T23:01:04.805Z,70.40
2019-01-05T23:07:54.049Z,70.20
2019-01-05T23:14:47.127Z,70.20
2019-01-05T23:23:39.865Z,69.90
2019-01-05T23:37:48.208Z,69.40
2019-01-05T23:44:43.322Z,69.00
2019-01-05T23:51:40.231Z,68.00
2019-01-05T23:58:35.103Z,67.40
